ACA448 CYWG-CYVR
Flight info
| Callsign | ACA448 |
|---|---|
| Flight time | N/A |
| Altitude | 36000 |
| Route | VOGIG2/31 LIVBI DCT DUKPO DCT FAREN DCT EMLIK Q828 BOOTH CANUC5 |
| Aircraft | A320/M-SDE3FGHIRWY/LB1 |
Departure
| Time | N/A |
|---|---|
| Airport | Winnipeg / James Armstrong Richardson International Airport (CYWG) |
Arrival
| Time | 2026-05-03 21:12 |
|---|---|
| Airport | Vancouver International Airport (CYVR) |
| Time | Latitude | Longitude | Altitude | Speed | Heading |
|---|---|---|---|---|---|
| 2026-05-03 20:15 | 50.86852 | -114.52891 | 36951 ft | 438 kts | 266° |
| 2026-05-03 20:15 | 50.85925 | -114.62423 | 36954 ft | 438 kts | 266° |
| 2026-05-03 20:16 | 50.84990 | -114.71940 | 36955 ft | 438 kts | 266° |
| 2026-05-03 20:16 | 50.84048 | -114.81469 | 36954 ft | 439 kts | 266° |
| 2026-05-03 20:17 | 50.83098 | -114.90944 | 36959 ft | 439 kts | 265° |
| 2026-05-03 20:17 | 50.82129 | -115.00490 | 36970 ft | 439 kts | 265° |
| 2026-05-03 20:18 | 50.81322 | -115.08464 | 36970 ft | 439 kts | 265° |
| 2026-05-03 20:18 | 50.80189 | -115.19557 | 36981 ft | 440 kts | 265° |
| 2026-05-03 20:19 | 50.79363 | -115.27555 | 36974 ft | 440 kts | 265° |
| 2026-05-03 20:19 | 50.78369 | -115.37108 | 36987 ft | 441 kts | 265° |
| 2026-05-03 20:20 | 50.77478 | -115.45609 | 36999 ft | 440 kts | 265° |
| 2026-05-03 20:20 | 50.76467 | -115.55166 | 36996 ft | 441 kts | 265° |
| 2026-05-03 20:21 | 50.75454 | -115.64668 | 36994 ft | 441 kts | 265° |
| 2026-05-03 20:21 | 50.74429 | -115.74239 | 36984 ft | 441 kts | 265° |
| 2026-05-03 20:22 | 50.73394 | -115.83802 | 36982 ft | 442 kts | 265° |
| 2026-05-03 20:22 | 50.72351 | -115.93365 | 36983 ft | 442 kts | 265° |
| 2026-05-03 20:23 | 50.71301 | -116.02944 | 36980 ft | 443 kts | 264° |
| 2026-05-03 20:23 | 50.70237 | -116.12512 | 37003 ft | 443 kts | 264° |
| 2026-05-03 20:24 | 50.69166 | -116.22088 | 36995 ft | 444 kts | 264° |
| 2026-05-03 20:24 | 50.68083 | -116.31656 | 37014 ft | 444 kts | 264° |
| 2026-05-03 20:25 | 50.66878 | -116.41155 | 37022 ft | 447 kts | 259° |
| 2026-05-03 20:25 | 50.65217 | -116.50605 | 37028 ft | 448 kts | 259° |
| 2026-05-03 20:26 | 50.63554 | -116.60075 | 37052 ft | 449 kts | 259° |
| 2026-05-03 20:26 | 50.61878 | -116.69560 | 37049 ft | 449 kts | 259° |
| 2026-05-03 20:27 | 50.60190 | -116.79027 | 37049 ft | 449 kts | 259° |
| 2026-05-03 20:27 | 50.58481 | -116.88512 | 37045 ft | 450 kts | 259° |
| 2026-05-03 20:28 | 50.56773 | -116.97993 | 37040 ft | 451 kts | 259° |
| 2026-05-03 20:28 | 50.55067 | -117.07435 | 37034 ft | 452 kts | 259° |
| 2026-05-03 20:29 | 50.53341 | -117.16940 | 37031 ft | 452 kts | 258° |
| 2026-05-03 20:29 | 50.51598 | -117.26509 | 37025 ft | 453 kts | 258° |
| 2026-05-03 20:30 | 50.49838 | -117.36046 | 37029 ft | 454 kts | 258° |
| 2026-05-03 20:30 | 50.48071 | -117.45574 | 37029 ft | 454 kts | 258° |
| 2026-05-03 20:31 | 50.46323 | -117.55023 | 37023 ft | 454 kts | 258° |
| 2026-05-03 20:31 | 50.44539 | -117.64594 | 37013 ft | 455 kts | 258° |
| 2026-05-03 20:32 | 50.42758 | -117.74079 | 37023 ft | 457 kts | 258° |
| 2026-05-03 20:32 | 50.40946 | -117.83702 | 37032 ft | 457 kts | 258° |
| 2026-05-03 20:33 | 50.39134 | -117.93270 | 37025 ft | 458 kts | 258° |
| 2026-05-03 20:33 | 50.37302 | -118.02842 | 37018 ft | 459 kts | 258° |
| 2026-05-03 20:34 | 50.35593 | -118.11750 | 37021 ft | 460 kts | 258° |
| 2026-05-03 20:34 | 50.34329 | -118.18343 | 37029 ft | 460 kts | 258° |
| 2026-05-03 20:35 | 50.32476 | -118.27949 | 37040 ft | 460 kts | 258° |
| 2026-05-03 20:35 | 50.30612 | -118.37537 | 37039 ft | 461 kts | 258° |
| 2026-05-03 20:36 | 50.28730 | -118.47192 | 37028 ft | 462 kts | 258° |
| 2026-05-03 20:36 | 50.26847 | -118.56807 | 37029 ft | 463 kts | 258° |
| 2026-05-03 20:37 | 50.24950 | -118.66415 | 37021 ft | 463 kts | 258° |
| 2026-05-03 20:37 | 50.23047 | -118.76040 | 37021 ft | 464 kts | 258° |
| 2026-05-03 20:38 | 50.21140 | -118.85678 | 37010 ft | 465 kts | 257° |
| 2026-05-03 20:38 | 50.19228 | -118.95245 | 36718 ft | 465 kts | 257° |
| 2026-05-03 20:38 | 50.18250 | -119.00114 | 36452 ft | 465 kts | 257° |
| 2026-05-03 20:39 | 50.17277 | -119.04930 | 36198 ft | 466 kts | 257° |
| 2026-05-03 20:39 | 50.16301 | -119.09758 | 35924 ft | 467 kts | 257° |
| 2026-05-03 20:39 | 50.15325 | -119.14586 | 35667 ft | 468 kts | 257° |
| 2026-05-03 20:39 | 50.14354 | -119.19390 | 35416 ft | 469 kts | 257° |
| 2026-05-03 20:40 | 50.13381 | -119.24198 | 35161 ft | 469 kts | 257° |
| 2026-05-03 20:40 | 50.12381 | -119.29122 | 34910 ft | 470 kts | 257° |
| 2026-05-03 20:40 | 50.11390 | -119.33981 | 34666 ft | 471 kts | 257° |
| 2026-05-03 20:40 | 50.10389 | -119.38866 | 34418 ft | 473 kts | 257° |
| 2026-05-03 20:41 | 50.09388 | -119.43735 | 34184 ft | 473 kts | 257° |
| 2026-05-03 20:41 | 50.08381 | -119.48630 | 33938 ft | 475 kts | 257° |
| 2026-05-03 20:41 | 50.07364 | -119.53564 | 33662 ft | 475 kts | 257° |
| 2026-05-03 20:41 | 50.06348 | -119.58475 | 33383 ft | 475 kts | 257° |
| 2026-05-03 20:42 | 50.05331 | -119.63381 | 33103 ft | 475 kts | 256° |
| 2026-05-03 20:42 | 50.04309 | -119.68297 | 32841 ft | 476 kts | 256° |
| 2026-05-03 20:42 | 50.03288 | -119.73195 | 32577 ft | 476 kts | 256° |
| 2026-05-03 20:42 | 50.02840 | -119.75338 | 32460 ft | 476 kts | 256° |
| 2026-05-03 20:43 | 50.02050 | -119.79197 | 32274 ft | 469 kts | 258° |
| 2026-05-03 20:43 | 50.01680 | -119.81128 | 32110 ft | 462 kts | 258° |
| 2026-05-03 20:44 | 50.01460 | -119.82395 | 32036 ft | 456 kts | 260° |
| 2026-05-03 20:50 | 50.01262 | -119.83824 | 32554 ft | 424 kts | 264° |
| 2026-05-03 20:50 | 50.00837 | -119.87943 | 34466 ft | 391 kts | 265° |
| 2026-05-03 20:50 | 50.00103 | -119.92148 | 34215 ft | 415 kts | 256° |
| 2026-05-03 20:51 | 49.99034 | -119.96438 | 33967 ft | 434 kts | 252° |
| 2026-05-03 20:51 | 49.97829 | -120.00829 | 33681 ft | 450 kts | 252° |
| 2026-05-03 20:51 | 49.96608 | -120.05394 | 33402 ft | 464 kts | 253° |
| 2026-05-03 20:51 | 49.96122 | -120.07309 | 33286 ft | 469 kts | 253° |
| 2026-05-03 20:52 | 49.94977 | -120.12113 | 33012 ft | 478 kts | 255° |
| 2026-05-03 20:52 | 49.93902 | -120.17015 | 32734 ft | 479 kts | 256° |
| 2026-05-03 20:52 | 49.92887 | -120.21913 | 32427 ft | 478 kts | 257° |
| 2026-05-03 20:52 | 49.91885 | -120.26852 | 32036 ft | 478 kts | 256° |
| 2026-05-03 20:53 | 49.90885 | -120.31750 | 31652 ft | 477 kts | 256° |
| 2026-05-03 20:53 | 49.89858 | -120.36673 | 31273 ft | 477 kts | 255° |
| 2026-05-03 20:53 | 49.88818 | -120.41554 | 30902 ft | 477 kts | 255° |
| 2026-05-03 20:53 | 49.87761 | -120.46435 | 30532 ft | 477 kts | 254° |
| 2026-05-03 20:54 | 49.87043 | -120.49723 | 30282 ft | 477 kts | 254° |
| 2026-05-03 20:54 | 49.84567 | -120.61040 | 29323 ft | 478 kts | 254° |
| 2026-05-03 20:54 | 49.83503 | -120.65925 | 28902 ft | 479 kts | 254° |
| 2026-05-03 20:55 | 49.82782 | -120.69230 | 28620 ft | 480 kts | 254° |
| 2026-05-03 20:55 | 49.81719 | -120.74103 | 28216 ft | 487 kts | 253° |
| 2026-05-03 20:55 | 49.80618 | -120.79130 | 27974 ft | 486 kts | 253° |
| 2026-05-03 20:55 | 49.79544 | -120.84015 | 28023 ft | 487 kts | 253° |
| 2026-05-03 20:56 | 49.77331 | -120.94006 | 27744 ft | 486 kts | 253° |
| 2026-05-03 20:56 | 49.76234 | -120.98938 | 27479 ft | 484 kts | 253° |
| 2026-05-03 20:56 | 49.75143 | -121.03850 | 27211 ft | 482 kts | 253° |
| 2026-05-03 20:57 | 49.74059 | -121.08730 | 26955 ft | 481 kts | 253° |
| 2026-05-03 20:57 | 49.72972 | -121.13615 | 26694 ft | 479 kts | 253° |
| 2026-05-03 20:57 | 49.71903 | -121.18410 | 26441 ft | 477 kts | 253° |
| 2026-05-03 20:57 | 49.70805 | -121.23314 | 26184 ft | 476 kts | 253° |
| 2026-05-03 20:58 | 49.69724 | -121.28133 | 25932 ft | 474 kts | 253° |
| 2026-05-03 20:58 | 49.68644 | -121.32934 | 25648 ft | 471 kts | 253° |
| 2026-05-03 20:58 | 49.67577 | -121.37657 | 25231 ft | 460 kts | 252° |
| 2026-05-03 20:58 | 49.66525 | -121.42290 | 24500 ft | 454 kts | 252° |
| 2026-05-03 20:59 | 49.65472 | -121.46940 | 24213 ft | 467 kts | 252° |
| 2026-05-03 20:59 | 49.64401 | -121.51674 | 23973 ft | 463 kts | 252° |
| 2026-05-03 20:59 | 49.63343 | -121.56335 | 23742 ft | 462 kts | 252° |
| 2026-05-03 20:59 | 49.62262 | -121.61069 | 23392 ft | 460 kts | 252° |
| 2026-05-03 21:00 | 49.61180 | -121.65803 | 22981 ft | 476 kts | 252° |
| 2026-05-03 21:00 | 49.60450 | -121.69001 | 22710 ft | 477 kts | 252° |
| 2026-05-03 21:00 | 49.58976 | -121.75434 | 22175 ft | 474 kts | 252° |
| 2026-05-03 21:00 | 49.57875 | -121.80205 | 21780 ft | 471 kts | 252° |
| 2026-05-03 21:01 | 49.56779 | -121.84948 | 21395 ft | 469 kts | 252° |
| 2026-05-03 21:01 | 49.55688 | -121.89668 | 21021 ft | 467 kts | 252° |
| 2026-05-03 21:01 | 49.54600 | -121.94363 | 20646 ft | 464 kts | 252° |
| 2026-05-03 21:01 | 49.53519 | -121.99021 | 20283 ft | 462 kts | 252° |
| 2026-05-03 21:02 | 49.52403 | -122.03655 | 19919 ft | 460 kts | 248° |
| 2026-05-03 21:02 | 49.50902 | -122.07883 | 19566 ft | 459 kts | 239° |
| 2026-05-03 21:02 | 49.49194 | -122.12115 | 19204 ft | 456 kts | 239° |
| 2026-05-03 21:02 | 49.47524 | -122.16246 | 18800 ft | 453 kts | 239° |
| 2026-05-03 21:03 | 49.45896 | -122.20292 | 18221 ft | 449 kts | 239° |
| 2026-05-03 21:03 | 49.44256 | -122.24417 | 17538 ft | 443 kts | 240° |
| 2026-05-03 21:03 | 49.42665 | -122.28433 | 16742 ft | 438 kts | 240° |
| 2026-05-03 21:03 | 49.41093 | -122.32407 | 15985 ft | 433 kts | 239° |
| 2026-05-03 21:04 | 49.39395 | -122.36193 | 15271 ft | 429 kts | 232° |
| 2026-05-03 21:04 | 49.37513 | -122.39729 | 14590 ft | 425 kts | 230° |
| 2026-05-03 21:04 | 49.35567 | -122.43126 | 13907 ft | 422 kts | 229° |
| 2026-05-03 21:04 | 49.33601 | -122.46421 | 13181 ft | 418 kts | 228° |
| 2026-05-03 21:05 | 49.31632 | -122.49672 | 12441 ft | 413 kts | 227° |
| 2026-05-03 21:05 | 49.29681 | -122.52876 | 11689 ft | 409 kts | 227° |
| 2026-05-03 21:05 | 49.27755 | -122.56062 | 10942 ft | 405 kts | 228° |
| 2026-05-03 21:05 | 49.25897 | -122.59188 | 10197 ft | 401 kts | 228° |
| 2026-05-03 21:06 | 49.24046 | -122.62335 | 9423 ft | 397 kts | 228° |
| 2026-05-03 21:06 | 49.22191 | -122.65510 | 8614 ft | 392 kts | 228° |
| 2026-05-03 21:06 | 49.20513 | -122.68668 | 7862 ft | 387 kts | 236° |
| 2026-05-03 21:06 | 49.19103 | -122.72079 | 7479 ft | 362 kts | 239° |
| 2026-05-03 21:07 | 49.17879 | -122.75261 | 7078 ft | 334 kts | 240° |
| 2026-05-03 21:07 | 49.16784 | -122.78222 | 6882 ft | 305 kts | 242° |
| 2026-05-03 21:07 | 49.16130 | -122.81134 | 6594 ft | 282 kts | 267° |
| 2026-05-03 21:07 | 49.16319 | -122.84053 | 5952 ft | 275 kts | 281° |
| 2026-05-03 21:08 | 49.16673 | -122.86908 | 5228 ft | 273 kts | 281° |
| 2026-05-03 21:08 | 49.17012 | -122.89725 | 4751 ft | 261 kts | 280° |
| 2026-05-03 21:08 | 49.17318 | -122.92349 | 4519 ft | 241 kts | 280° |
| 2026-05-03 21:08 | 49.17604 | -122.94807 | 3895 ft | 233 kts | 280° |
| 2026-05-03 21:09 | 49.17886 | -122.97232 | 3432 ft | 225 kts | 280° |
| 2026-05-03 21:09 | 49.18145 | -122.99462 | 3335 ft | 201 kts | 280° |
| 2026-05-03 21:09 | 49.18361 | -123.01433 | 3202 ft | 180 kts | 278° |
| 2026-05-03 21:09 | 49.18516 | -123.03327 | 2767 ft | 173 kts | 276° |
| 2026-05-03 21:10 | 49.18663 | -123.05166 | 2480 ft | 173 kts | 279° |
| 2026-05-03 21:10 | 49.18896 | -123.06816 | 1990 ft | 167 kts | 283° |
| 2026-05-03 21:10 | 49.19142 | -123.08498 | 1472 ft | 163 kts | 282° |
| 2026-05-03 21:10 | 49.19346 | -123.10184 | 948 ft | 157 kts | 279° |
| 2026-05-03 21:11 | 49.19546 | -123.11792 | 532 ft | 145 kts | 282° |
| 2026-05-03 21:11 | 49.19713 | -123.13200 | 372 ft | 125 kts | 283° |
| 2026-05-03 21:11 | 49.19860 | -123.14506 | 273 ft | 128 kts | 282° |
| 2026-05-03 21:11 | 49.20019 | -123.15812 | 104 ft | 120 kts | 282° |
| 2026-05-03 21:12 | 49.20157 | -123.16977 | 22 ft | 99 kts | 282° |
| 2026-05-03 21:12 | 49.20255 | -123.17765 | 17 ft | 64 kts | 278° |
| 2026-05-03 21:12 | 49.20307 | -123.18390 | 21 ft | 50 kts | 262° |
| 2026-05-03 21:12 | 49.20237 | -123.18749 | 21 ft | 14 kts | 250° |
| 2026-05-03 21:13 | 49.20227 | -123.18794 | 22 ft | 0 kts | 250° |
| 2026-05-03 21:14 | 49.20227 | -123.18795 | 22 ft | 1 kts | 250° |
| 2026-05-03 21:14 | 49.20193 | -123.18827 | 22 ft | 6 kts | 175° |
| 2026-05-03 21:15 | 49.20161 | -123.18803 | 20 ft | 5 kts | 144° |
| 2026-05-03 21:15 | 49.20157 | -123.18795 | 22 ft | 1 kts | 131° |
| 2026-05-03 21:15 | 49.20146 | -123.18782 | 21 ft | 4 kts | 153° |
| 2026-05-03 21:15 | 49.20087 | -123.18777 | 20 ft | 13 kts | 185° |
| 2026-05-03 21:16 | 49.19980 | -123.18808 | 21 ft | 16 kts | 187° |
| 2026-05-03 21:16 | 49.19869 | -123.18832 | 19 ft | 15 kts | 190° |
| 2026-05-03 21:16 | 49.19774 | -123.18820 | 18 ft | 13 kts | 135° |
| 2026-05-03 21:16 | 49.19748 | -123.18701 | 18 ft | 11 kts | 107° |
| 2026-05-03 21:17 | 49.19724 | -123.18591 | 18 ft | 11 kts | 109° |
| 2026-05-03 21:17 | 49.19708 | -123.18521 | 18 ft | 10 kts | 105° |
| 2026-05-03 21:17 | 49.19687 | -123.18384 | 18 ft | 9 kts | 102° |
| 2026-05-03 21:17 | 49.19674 | -123.18287 | 18 ft | 10 kts | 102° |
| 2026-05-03 21:18 | 49.19645 | -123.18156 | 18 ft | 13 kts | 110° |
| 2026-05-03 21:18 | 49.19630 | -123.18044 | 18 ft | 9 kts | 105° |
| 2026-05-03 21:18 | 49.19601 | -123.17978 | 18 ft | 7 kts | 111° |
| 2026-05-03 21:18 | 49.19589 | -123.17917 | 19 ft | 0 kts | 107° |